createdAt,value
2018-08-17T00:00:49.011Z,0.00
2018-08-17T00:01:49.013Z,0.00
2018-08-17T00:02:49.018Z,0.00
2018-08-17T00:03:49.018Z,0.00
2018-08-17T00:04:49.016Z,0.00
2018-08-17T00:05:49.022Z,0.00
2018-08-17T00:06:49.023Z,0.00
2018-08-17T00:07:49.025Z,0.00
2018-08-17T00:08:49.031Z,0.00
2018-08-17T00:09:49.031Z,0.00
2018-08-17T00:10:49.032Z,0.00
2018-08-17T00:11:49.039Z,0.00
2018-08-17T00:12:49.040Z,0.00
2018-08-17T00:13:49.045Z,0.00
2018-08-17T00:14:49.041Z,0.00
2018-08-17T00:15:49.044Z,0.00
2018-08-17T00:16:49.048Z,0.00
2018-08-17T00:17:49.063Z,0.00
2018-08-17T00:18:49.052Z,0.00
2018-08-17T00:19:49.063Z,0.00
2018-08-17T00:20:49.058Z,0.00
2018-08-17T00:21:49.057Z,0.00
2018-08-17T00:22:49.057Z,0.00
2018-08-17T00:23:49.064Z,0.00
2018-08-17T00:24:49.063Z,0.00
2018-08-17T00:25:49.070Z,0.00
2018-08-17T00:26:49.071Z,0.00
2018-08-17T00:27:49.068Z,0.00
2018-08-17T00:28:49.074Z,0.00
2018-08-17T00:29:49.073Z,0.00
2018-08-17T00:30:49.082Z,0.00
2018-08-17T00:31:49.088Z,0.00
2018-08-17T00:32:49.086Z,0.00
2018-08-17T00:33:49.083Z,0.00
2018-08-17T00:34:49.089Z,0.00
2018-08-17T00:35:49.092Z,0.00
2018-08-17T00:36:49.100Z,0.00
2018-08-17T00:37:49.092Z,0.00
2018-08-17T00:38:49.096Z,0.00
2018-08-17T00:39:49.096Z,0.00
2018-08-17T00:40:49.101Z,0.00
2018-08-17T00:41:49.103Z,0.00
2018-08-17T00:42:49.103Z,0.00
2018-08-17T00:43:49.103Z,0.00
2018-08-17T00:44:49.106Z,0.00
2018-08-17T00:45:49.112Z,0.00
2018-08-17T00:46:49.114Z,0.00
2018-08-17T00:47:49.115Z,0.00
2018-08-17T00:48:49.122Z,0.00
2018-08-17T00:49:49.119Z,0.00
2018-08-17T00:50:49.122Z,0.00
2018-08-17T00:51:49.122Z,0.00
2018-08-17T00:52:49.128Z,0.00
2018-08-17T00:53:49.130Z,0.00
2018-08-17T00:54:49.137Z,0.00
2018-08-17T00:55:49.129Z,0.00
2018-08-17T00:56:49.127Z,0.00
2018-08-17T00:57:49.131Z,0.00
2018-08-17T00:58:49.140Z,0.00
2018-08-17T00:59:49.136Z,0.00
2018-08-17T01:00:49.137Z,0.00
2018-08-17T01:01:49.135Z,0.00
2018-08-17T01:02:49.142Z,0.00
2018-08-17T01:03:49.148Z,0.00
2018-08-17T01:04:49.147Z,0.00
2018-08-17T01:05:49.147Z,0.00
2018-08-17T01:06:49.149Z,0.00
2018-08-17T01:07:49.154Z,0.00
2018-08-17T01:08:49.154Z,0.00
2018-08-17T01:09:49.159Z,0.00
2018-08-17T01:10:49.158Z,0.00
2018-08-17T01:11:49.152Z,0.00
2018-08-17T01:12:49.154Z,0.00
2018-08-17T01:13:49.159Z,0.00
2018-08-17T01:14:49.164Z,0.00
2018-08-17T01:15:49.162Z,0.00
2018-08-17T01:16:49.164Z,0.00
2018-08-17T01:17:49.169Z,0.00
2018-08-17T01:18:49.172Z,0.00
2018-08-17T01:19:49.175Z,0.00
2018-08-17T01:20:49.182Z,0.00
2018-08-17T01:21:49.177Z,0.00
2018-08-17T01:22:49.174Z,0.00
2018-08-17T01:23:49.179Z,0.00
2018-08-17T01:24:49.193Z,0.00
2018-08-17T01:25:49.189Z,0.00
2018-08-17T01:26:49.183Z,0.00
2018-08-17T01:27:49.184Z,0.00
2018-08-17T01:28:49.185Z,0.00
2018-08-17T01:29:49.188Z,0.00
2018-08-17T01:30:49.195Z,0.00
2018-08-17T01:31:49.192Z,0.00
2018-08-17T01:32:49.188Z,0.00
2018-08-17T01:33:49.191Z,0.00
2018-08-17T01:34:49.195Z,0.00
2018-08-17T01:35:49.203Z,0.00
2018-08-17T01:36:49.202Z,0.00
2018-08-17T01:37:49.200Z,0.00
2018-08-17T01:38:49.204Z,0.00
2018-08-17T01:39:49.208Z,0.00
2018-08-17T01:40:49.211Z,0.00
2018-08-17T01:41:49.207Z,0.00
2018-08-17T01:42:49.209Z,0.00
2018-08-17T01:43:49.213Z,0.00
2018-08-17T01:44:49.212Z,0.00
2018-08-17T01:45:49.224Z,0.00
2018-08-17T01:46:49.214Z,0.00
2018-08-17T01:47:49.218Z,0.00
2018-08-17T01:48:49.219Z,0.00
2018-08-17T01:49:49.224Z,0.00
2018-08-17T01:50:49.229Z,0.00
2018-08-17T01:51:49.225Z,0.00
2018-08-17T01:52:49.223Z,0.00
2018-08-17T01:53:49.224Z,0.00
2018-08-17T01:54:49.230Z,0.00
2018-08-17T01:55:49.231Z,0.00
2018-08-17T01:56:49.227Z,0.00
2018-08-17T01:57:49.231Z,0.00
2018-08-17T01:58:49.233Z,0.00
2018-08-17T01:59:49.235Z,0.00
2018-08-17T02:00:49.241Z,0.00
2018-08-17T02:01:49.239Z,0.00
2018-08-17T02:02:49.240Z,0.00
2018-08-17T02:03:49.244Z,0.00
2018-08-17T02:04:49.248Z,0.00
2018-08-17T02:05:49.249Z,0.00
2018-08-17T02:06:49.251Z,0.00
2018-08-17T02:07:49.254Z,0.00
2018-08-17T02:08:49.265Z,0.00
2018-08-17T02:09:49.250Z,0.00
2018-08-17T02:10:49.260Z,0.00
2018-08-17T02:11:49.262Z,0.00
2018-08-17T02:12:49.249Z,0.00
2018-08-17T02:13:49.251Z,0.00
2018-08-17T02:14:49.342Z,0.00
2018-08-17T02:15:49.264Z,0.00
2018-08-17T02:16:49.262Z,0.00
2018-08-17T02:17:49.263Z,0.00
2018-08-17T02:18:49.264Z,0.00
2018-08-17T02:19:49.267Z,0.00
2018-08-17T02:20:49.273Z,0.00
2018-08-17T02:21:49.268Z,0.00
2018-08-17T02:22:49.286Z,0.00
2018-08-17T02:23:49.271Z,0.00
2018-08-17T02:24:49.274Z,0.00
2018-08-17T02:25:49.278Z,0.00
2018-08-17T02:26:49.276Z,0.00
2018-08-17T02:27:49.276Z,0.00
2018-08-17T02:28:49.280Z,0.00
2018-08-17T02:29:49.278Z,0.00
2018-08-17T02:30:49.286Z,0.00
2018-08-17T02:31:49.282Z,0.00
2018-08-17T02:32:49.279Z,0.00
2018-08-17T02:33:49.292Z,0.00
2018-08-17T02:34:49.288Z,0.00
2018-08-17T02:35:49.288Z,0.00
2018-08-17T02:36:49.286Z,0.00
2018-08-17T02:37:49.295Z,0.00
2018-08-17T02:38:49.292Z,0.00
2018-08-17T02:39:49.295Z,0.00
2018-08-17T02:40:49.304Z,0.00
2018-08-17T02:41:49.296Z,0.00
2018-08-17T02:42:49.297Z,0.00
2018-08-17T02:43:49.305Z,0.00
2018-08-17T02:44:49.302Z,0.00
2018-08-17T02:45:49.312Z,0.00
2018-08-17T02:46:49.303Z,0.00
2018-08-17T02:47:49.306Z,0.00
2018-08-17T02:48:49.306Z,0.00
2018-08-17T02:49:49.307Z,0.00
2018-08-17T02:50:49.310Z,0.00
2018-08-17T02:51:49.315Z,0.00
2018-08-17T02:52:49.307Z,0.00
2018-08-17T02:53:49.316Z,0.00
2018-08-17T02:54:49.314Z,0.00
2018-08-17T02:55:49.311Z,0.00
2018-08-17T02:56:49.317Z,0.00
2018-08-17T02:57:49.314Z,0.00
2018-08-17T02:58:49.324Z,0.00
2018-08-17T02:59:49.327Z,0.00
2018-08-17T03:00:49.321Z,0.00
2018-08-17T03:01:49.323Z,0.00
2018-08-17T03:02:49.329Z,0.00
2018-08-17T03:03:49.328Z,0.00
2018-08-17T03:04:49.348Z,0.00
2018-08-17T03:05:49.326Z,0.00
2018-08-17T03:06:49.332Z,0.00
2018-08-17T03:07:49.326Z,0.00
2018-08-17T03:08:49.332Z,0.00
2018-08-17T03:09:49.337Z,0.00
2018-08-17T03:10:49.329Z,0.00
2018-08-17T03:11:49.332Z,0.00
2018-08-17T03:12:49.334Z,0.00
2018-08-17T03:13:49.339Z,0.00
2018-08-17T03:14:49.337Z,0.00
2018-08-17T03:15:49.343Z,0.00
2018-08-17T03:16:49.342Z,0.00
2018-08-17T03:17:49.352Z,0.00
2018-08-17T03:18:49.340Z,0.00
2018-08-17T03:19:49.343Z,0.00
2018-08-17T03:20:49.346Z,0.00
2018-08-17T03:21:49.347Z,0.00
2018-08-17T03:22:49.348Z,0.00
2018-08-17T03:23:49.356Z,0.00
2018-08-17T03:24:49.351Z,0.00
2018-08-17T03:25:49.361Z,0.00
2018-08-17T03:26:49.359Z,0.00
2018-08-17T03:27:49.359Z,0.00
2018-08-17T03:28:49.361Z,0.00
2018-08-17T03:29:49.355Z,0.00
2018-08-17T03:30:49.378Z,0.00
2018-08-17T03:31:49.361Z,0.00
2018-08-17T03:32:49.359Z,0.00
2018-08-17T03:33:49.359Z,0.00
2018-08-17T03:34:49.368Z,0.00
2018-08-17T03:35:49.365Z,0.00
2018-08-17T03:36:49.366Z,0.00
2018-08-17T03:37:49.367Z,0.00
2018-08-17T03:38:49.365Z,0.00
2018-08-17T03:39:49.367Z,0.00
2018-08-17T03:40:49.374Z,0.00
2018-08-17T03:41:49.372Z,0.00
2018-08-17T03:42:49.373Z,0.00
2018-08-17T03:43:49.375Z,0.00
2018-08-17T03:44:49.372Z,0.00
2018-08-17T03:45:49.379Z,0.00
2018-08-17T03:46:49.374Z,0.00
2018-08-17T03:47:49.374Z,0.00
2018-08-17T03:48:49.371Z,5.63
2018-08-17T03:49:49.375Z,5.63
2018-08-17T03:50:49.377Z,5.63
2018-08-17T03:51:49.375Z,5.63
2018-08-17T03:52:49.380Z,5.63
2018-08-17T03:53:49.384Z,5.63
2018-08-17T03:54:49.384Z,5.63
2018-08-17T03:55:49.380Z,5.63
2018-08-17T03:56:49.390Z,5.63
2018-08-17T03:57:49.385Z,11.25
2018-08-17T03:58:49.387Z,11.25
2018-08-17T03:59:49.390Z,11.25
2018-08-17T04:00:49.389Z,11.25
2018-08-17T04:01:49.391Z,11.25
2018-08-17T04:02:49.388Z,16.88
2018-08-17T04:03:49.390Z,16.88
2018-08-17T04:04:49.395Z,16.88
2018-08-17T04:05:49.400Z,16.88
2018-08-17T04:06:49.395Z,16.88
2018-08-17T04:07:49.388Z,22.50
2018-08-17T04:08:49.393Z,22.50
2018-08-17T04:09:49.397Z,22.50
2018-08-17T04:10:49.398Z,28.13
2018-08-17T04:11:49.399Z,28.13
2018-08-17T04:12:49.399Z,28.13
2018-08-17T04:13:49.407Z,28.13
2018-08-17T04:14:49.401Z,33.75
2018-08-17T04:15:49.405Z,33.75
2018-08-17T04:16:49.408Z,33.75
2018-08-17T04:17:49.409Z,39.38
2018-08-17T04:18:49.403Z,39.38
2018-08-17T04:19:49.417Z,39.38
2018-08-17T04:20:49.408Z,39.38
2018-08-17T04:21:49.407Z,45.00
2018-08-17T04:22:49.413Z,45.00
2018-08-17T04:23:49.463Z,50.63
2018-08-17T04:24:49.409Z,50.63
2018-08-17T04:25:49.407Z,56.25
2018-08-17T04:26:49.411Z,56.25
2018-08-17T04:27:49.413Z,61.88
2018-08-17T04:28:49.412Z,61.88
2018-08-17T04:29:49.416Z,67.50
2018-08-17T04:30:49.417Z,67.50
2018-08-17T04:31:49.425Z,73.13
2018-08-17T04:32:49.420Z,73.13
2018-08-17T04:33:49.427Z,78.75
2018-08-17T04:34:49.421Z,78.75
2018-08-17T04:35:49.425Z,84.38
2018-08-17T04:36:49.421Z,84.38
2018-08-17T04:37:49.425Z,90.00
2018-08-17T04:38:49.422Z,90.00
2018-08-17T04:39:49.423Z,90.00
2018-08-17T04:40:49.423Z,95.63
2018-08-17T04:41:49.429Z,101.25
2018-08-17T04:42:49.425Z,101.25
2018-08-17T04:43:49.488Z,106.88
2018-08-17T04:44:49.429Z,106.88
2018-08-17T04:45:49.431Z,112.50
2018-08-17T04:46:49.433Z,118.13
2018-08-17T04:47:49.433Z,123.75
2018-08-17T04:48:49.431Z,129.38
2018-08-17T04:49:49.433Z,135.00
2018-08-17T04:50:49.433Z,140.63
2018-08-17T04:51:49.438Z,151.88
2018-08-17T04:52:49.438Z,163.13
2018-08-17T04:53:49.444Z,174.38
2018-08-17T04:54:49.441Z,185.63
2018-08-17T04:55:49.447Z,191.25
2018-08-17T04:56:49.444Z,202.50
2018-08-17T04:57:49.450Z,196.88
2018-08-17T04:58:49.474Z,213.75
2018-08-17T04:59:49.450Z,219.38
2018-08-17T05:00:49.451Z,219.38
2018-08-17T05:01:49.454Z,225.00
2018-08-17T05:02:49.449Z,225.00
2018-08-17T05:03:49.456Z,230.63
2018-08-17T05:04:49.452Z,236.25
2018-08-17T05:05:49.451Z,236.25
2018-08-17T05:06:49.452Z,241.88
2018-08-17T05:07:49.456Z,241.88
2018-08-17T05:08:49.510Z,247.50
2018-08-17T05:09:49.461Z,247.50
2018-08-17T05:10:49.462Z,253.13
2018-08-17T05:11:49.466Z,253.13
2018-08-17T05:12:49.465Z,253.13
2018-08-17T05:13:49.471Z,258.75
2018-08-17T05:14:49.476Z,258.75
2018-08-17T05:15:49.474Z,264.38
2018-08-17T05:16:49.473Z,258.75
2018-08-17T05:17:49.470Z,264.38
2018-08-17T05:18:49.479Z,264.38
2018-08-17T05:19:49.483Z,270.00
2018-08-17T05:20:49.490Z,270.00
2018-08-17T05:21:49.489Z,270.00
2018-08-17T05:22:49.490Z,270.00
2018-08-17T05:23:49.486Z,264.38
2018-08-17T05:24:49.503Z,270.00
2018-08-17T05:25:49.495Z,281.25
2018-08-17T05:26:49.500Z,286.88
2018-08-17T05:27:49.503Z,286.88
2018-08-17T05:28:49.508Z,292.50
2018-08-17T05:29:49.514Z,292.50
2018-08-17T05:30:49.509Z,298.13
2018-08-17T05:31:49.515Z,281.25
2018-08-17T05:32:49.515Z,258.75
2018-08-17T05:33:49.520Z,281.25
2018-08-17T05:34:49.523Z,292.50
2018-08-17T05:35:49.555Z,292.50
2018-08-17T05:36:49.531Z,315.00
2018-08-17T05:37:49.535Z,326.25
2018-08-17T05:38:49.534Z,331.88
2018-08-17T05:39:49.543Z,331.88
2018-08-17T05:40:49.548Z,343.13
2018-08-17T05:41:49.551Z,354.38
2018-08-17T05:42:49.561Z,365.63
2018-08-17T05:43:49.554Z,399.38
2018-08-17T05:44:49.563Z,540.00
2018-08-17T05:45:49.564Z,669.38
2018-08-17T05:46:49.571Z,686.25
2018-08-17T05:47:49.574Z,736.88
2018-08-17T05:48:49.581Z,793.13
2018-08-17T05:49:49.587Z,776.25
2018-08-17T05:50:49.587Z,781.88
2018-08-17T05:51:49.599Z,826.88
2018-08-17T05:52:49.606Z,849.38
2018-08-17T05:53:49.600Z,843.75
2018-08-17T05:54:49.609Z,883.13
2018-08-17T05:55:49.609Z,933.75
2018-08-17T05:56:49.613Z,933.75
2018-08-17T05:57:49.619Z,888.75
2018-08-17T05:58:49.624Z,877.50
2018-08-17T05:59:49.628Z,905.63
2018-08-17T06:00:49.638Z,888.75
2018-08-17T06:01:49.640Z,894.38
2018-08-17T06:02:49.676Z,945.00
2018-08-17T06:03:49.652Z,1001.25
2018-08-17T06:04:49.654Z,1012.50
2018-08-17T06:05:49.661Z,922.50
2018-08-17T06:06:49.669Z,922.50
2018-08-17T06:07:49.673Z,961.88
2018-08-17T06:08:49.678Z,1051.88
2018-08-17T06:09:49.685Z,1130.63
2018-08-17T06:10:49.762Z,1108.13
2018-08-17T06:11:49.757Z,1023.75
2018-08-17T06:12:49.735Z,961.88
2018-08-17T06:13:49.707Z,1006.88
2018-08-17T06:14:49.712Z,1113.75
2018-08-17T06:15:49.719Z,1158.75
2018-08-17T06:16:49.722Z,1175.63
2018-08-17T06:17:49.729Z,1226.25
2018-08-17T06:18:49.738Z,1153.13
2018-08-17T06:19:49.741Z,1209.38
2018-08-17T06:20:49.751Z,1198.13
2018-08-17T06:21:49.757Z,1254.38
2018-08-17T06:22:49.762Z,1248.75
2018-08-17T06:23:49.771Z,1265.63
2018-08-17T06:24:49.771Z,1310.63
2018-08-17T06:25:49.779Z,1316.25
2018-08-17T06:26:49.794Z,1282.50
2018-08-17T06:27:49.798Z,1282.50
2018-08-17T06:28:49.806Z,1333.13
2018-08-17T06:29:49.805Z,1366.88
2018-08-17T06:30:49.813Z,1355.63
2018-08-17T06:31:49.886Z,1372.50
2018-08-17T06:32:49.849Z,1400.63
2018-08-17T06:33:49.835Z,1440.00
2018-08-17T06:34:49.842Z,1485.00
2018-08-17T06:35:49.849Z,1546.88
2018-08-17T06:36:49.854Z,1603.13
2018-08-17T06:37:49.864Z,1586.25
2018-08-17T06:38:49.871Z,1518.75
2018-08-17T06:39:49.877Z,1490.63
2018-08-17T06:40:49.883Z,1451.25
2018-08-17T06:41:49.896Z,1355.63
2018-08-17T06:42:49.901Z,1501.88
2018-08-17T06:43:49.908Z,1563.75
2018-08-17T06:44:49.913Z,1620.00
2018-08-17T06:45:49.920Z,1659.38
2018-08-17T06:46:49.930Z,1670.63
2018-08-17T06:47:49.935Z,1659.38
2018-08-17T06:48:49.944Z,1636.88
2018-08-17T06:49:49.950Z,1659.38
2018-08-17T06:50:50.110Z,1721.25
2018-08-17T06:51:49.964Z,1726.88
2018-08-17T06:52:49.972Z,1608.75
2018-08-17T06:53:49.979Z,1496.25
2018-08-17T06:54:49.989Z,1535.63
2018-08-17T06:55:49.992Z,1636.88
2018-08-17T06:56:50.005Z,1620.00
2018-08-17T06:57:50.017Z,1513.13
2018-08-17T06:58:50.017Z,1305.00
2018-08-17T06:59:50.024Z,1507.50
2018-08-17T07:00:50.034Z,1530.00
2018-08-17T07:01:50.043Z,1524.38
2018-08-17T07:02:50.066Z,1586.25
2018-08-17T07:03:50.080Z,1715.63
2018-08-17T07:04:50.066Z,1800.00
2018-08-17T07:05:50.075Z,1850.63
2018-08-17T07:06:50.087Z,1884.38
2018-08-17T07:07:50.093Z,1918.13
2018-08-17T07:08:50.183Z,1974.38
2018-08-17T07:09:50.109Z,2036.25
2018-08-17T07:10:50.115Z,2126.25
2018-08-17T07:11:50.125Z,2171.25
2018-08-17T07:12:50.138Z,2092.50
2018-08-17T07:13:50.139Z,1974.38
2018-08-17T07:14:50.149Z,1980.00
2018-08-17T07:15:50.157Z,2008.13
2018-08-17T07:16:50.168Z,2025.00
2018-08-17T07:17:50.176Z,2008.13
2018-08-17T07:18:50.182Z,1957.50
2018-08-17T07:19:50.188Z,1755.00
2018-08-17T07:20:50.199Z,1794.38
2018-08-17T07:21:50.209Z,1828.13
2018-08-17T07:22:50.218Z,1833.75
2018-08-17T07:23:50.227Z,1996.88
2018-08-17T07:24:50.232Z,2165.63
2018-08-17T07:25:50.431Z,2295.00
2018-08-17T07:26:50.252Z,2340.00
2018-08-17T07:27:50.352Z,2356.88
2018-08-17T07:28:50.277Z,2373.75
2018-08-17T07:29:50.278Z,2385.00
2018-08-17T07:30:50.289Z,2356.88
2018-08-17T07:31:50.298Z,2272.50
2018-08-17T07:32:50.312Z,2176.88
2018-08-17T07:33:50.339Z,2351.25
2018-08-17T07:34:50.324Z,2446.88
2018-08-17T07:35:50.445Z,2475.00
2018-08-17T07:36:50.345Z,2463.75
2018-08-17T07:37:50.352Z,2418.75
2018-08-17T07:38:50.361Z,2356.88
2018-08-17T07:39:50.372Z,2340.00
2018-08-17T07:40:50.380Z,2373.75
2018-08-17T07:41:50.390Z,2418.75
2018-08-17T07:42:50.397Z,2418.75
2018-08-17T07:43:50.405Z,2413.13
2018-08-17T07:44:50.418Z,2458.13
2018-08-17T07:45:50.429Z,2508.75
2018-08-17T07:46:50.437Z,2570.63
2018-08-17T07:47:50.529Z,2598.75
2018-08-17T07:48:50.461Z,2576.25
2018-08-17T07:49:50.479Z,2581.88
2018-08-17T07:50:50.487Z,2542.50
2018-08-17T07:51:50.493Z,2441.25
2018-08-17T07:52:50.498Z,2272.50
2018-08-17T07:53:50.510Z,2160.00
2018-08-17T07:54:50.521Z,2182.50
2018-08-17T07:55:50.531Z,2345.63
2018-08-17T07:56:50.539Z,2531.25
2018-08-17T07:57:50.556Z,2424.38
2018-08-17T07:58:50.565Z,2570.63
2018-08-17T07:59:50.573Z,2120.63
2018-08-17T08:00:50.579Z,1558.13
2018-08-17T08:01:50.591Z,2396.25
2018-08-17T08:02:50.606Z,2542.50
2018-08-17T08:03:50.611Z,2255.63
2018-08-17T08:04:50.623Z,1434.38
2018-08-17T08:05:50.632Z,618.75
2018-08-17T08:06:50.643Z,511.88
2018-08-17T08:07:50.652Z,568.13
2018-08-17T08:08:50.660Z,624.38
2018-08-17T08:09:50.670Z,601.88
2018-08-17T08:10:50.682Z,545.63
2018-08-17T08:11:50.691Z,731.25
2018-08-17T08:12:50.698Z,1383.75
2018-08-17T08:13:50.711Z,2559.38
2018-08-17T08:14:50.718Z,2795.63
2018-08-17T08:15:50.727Z,2936.25
2018-08-17T08:16:50.737Z,3020.63
2018-08-17T08:17:50.746Z,3031.88
2018-08-17T08:18:50.755Z,2947.50
2018-08-17T08:19:50.765Z,2846.25
2018-08-17T08:20:50.772Z,2750.63
2018-08-17T08:21:50.783Z,2728.13
2018-08-17T08:22:50.793Z,2677.50
2018-08-17T08:23:50.805Z,2238.75
2018-08-17T08:24:50.812Z,1552.50
2018-08-17T08:25:50.824Z,1462.50
2018-08-17T08:26:50.839Z,2463.75
2018-08-17T08:27:50.844Z,2790.00
2018-08-17T08:28:50.851Z,2896.88
2018-08-17T08:29:50.864Z,3015.00
2018-08-17T08:30:50.872Z,3071.25
2018-08-17T08:31:50.884Z,3088.13
2018-08-17T08:32:50.893Z,3099.38
2018-08-17T08:33:50.903Z,3037.50
2018-08-17T08:34:50.914Z,3121.88
2018-08-17T08:35:50.925Z,1901.25
2018-08-17T08:36:50.933Z,551.25
2018-08-17T08:37:50.946Z,343.13
2018-08-17T08:38:50.956Z,309.38
2018-08-17T08:39:51.004Z,315.00
2018-08-17T08:40:50.977Z,315.00
2018-08-17T08:41:50.985Z,331.88
2018-08-17T08:42:50.993Z,489.38
2018-08-17T08:43:51.005Z,455.63
2018-08-17T08:44:51.013Z,315.00
2018-08-17T08:45:51.072Z,303.75
2018-08-17T08:46:51.031Z,303.75
2018-08-17T08:47:51.041Z,303.75
2018-08-17T08:48:51.050Z,303.75
2018-08-17T08:49:51.061Z,298.13
2018-08-17T08:50:51.070Z,292.50
2018-08-17T08:51:51.075Z,292.50
2018-08-17T08:52:51.081Z,292.50
2018-08-17T08:53:51.090Z,292.50
2018-08-17T08:54:51.097Z,292.50
2018-08-17T08:55:51.108Z,298.13
2018-08-17T08:56:51.111Z,320.63
2018-08-17T08:57:51.121Z,309.38
2018-08-17T08:58:51.126Z,298.13
2018-08-17T08:59:51.135Z,292.50
2018-08-17T09:00:51.141Z,292.50
2018-08-17T09:01:51.242Z,298.13
2018-08-17T09:02:51.158Z,298.13
2018-08-17T09:03:51.162Z,298.13
2018-08-17T09:04:51.169Z,292.50
2018-08-17T09:05:51.179Z,292.50
2018-08-17T09:06:51.193Z,292.50
2018-08-17T09:07:51.317Z,292.50
2018-08-17T09:08:51.197Z,292.50
2018-08-17T09:09:51.262Z,292.50
2018-08-17T09:10:51.212Z,286.88
2018-08-17T09:11:51.225Z,286.88
2018-08-17T09:12:51.230Z,281.25
2018-08-17T09:13:51.239Z,281.25
2018-08-17T09:14:51.235Z,286.88
2018-08-17T09:15:51.250Z,286.88
2018-08-17T09:16:51.266Z,286.88
2018-08-17T09:17:51.257Z,286.88
2018-08-17T09:18:51.272Z,286.88
2018-08-17T09:19:51.269Z,281.25
2018-08-17T09:20:51.328Z,281.25
2018-08-17T09:21:51.282Z,281.25
2018-08-17T09:22:51.290Z,281.25
2018-08-17T09:23:51.410Z,281.25
2018-08-17T09:24:51.341Z,275.63
2018-08-17T09:25:51.304Z,281.25
2018-08-17T09:26:51.443Z,281.25
2018-08-17T09:27:51.408Z,275.63
2018-08-17T09:28:51.336Z,275.63
2018-08-17T09:29:51.398Z,275.63
2018-08-17T09:30:51.350Z,275.63
2018-08-17T09:31:51.356Z,275.63
2018-08-17T09:32:51.418Z,275.63
2018-08-17T09:33:51.354Z,275.63
2018-08-17T09:34:51.906Z,275.63
2018-08-17T09:35:51.388Z,275.63
2018-08-17T09:36:51.374Z,275.63
2018-08-17T09:37:51.458Z,275.63
2018-08-17T09:38:51.390Z,281.25
2018-08-17T09:39:51.419Z,281.25
2018-08-17T09:40:51.405Z,281.25
2018-08-17T09:41:51.487Z,281.25
2018-08-17T09:42:51.420Z,281.25
2018-08-17T09:43:51.419Z,281.25
2018-08-17T09:44:51.426Z,286.88
2018-08-17T09:45:51.427Z,286.88
2018-08-17T09:46:51.434Z,292.50
2018-08-17T09:47:51.441Z,292.50
2018-08-17T09:48:51.483Z,309.38
2018-08-17T09:49:51.451Z,320.63
2018-08-17T09:50:51.458Z,320.63
2018-08-17T09:51:51.466Z,331.88
2018-08-17T09:52:51.470Z,337.50
2018-08-17T09:53:51.477Z,326.25
2018-08-17T09:54:51.484Z,315.00
2018-08-17T09:55:51.492Z,309.38
2018-08-17T09:56:51.499Z,303.75
2018-08-17T09:57:51.502Z,298.13
2018-08-17T09:58:51.508Z,292.50
2018-08-17T09:59:51.514Z,292.50
2018-08-17T10:00:51.526Z,298.13
2018-08-17T10:01:51.526Z,298.13
2018-08-17T10:02:51.535Z,298.13
2018-08-17T10:03:51.643Z,303.75
2018-08-17T10:04:51.544Z,303.75
2018-08-17T10:05:51.554Z,303.75
2018-08-17T10:06:51.557Z,303.75
2018-08-17T10:07:51.563Z,298.13
2018-08-17T10:08:51.572Z,292.50
2018-08-17T10:09:51.578Z,292.50
2018-08-17T10:10:51.585Z,298.13
2018-08-17T10:11:51.590Z,309.38
2018-08-17T10:12:51.611Z,315.00
2018-08-17T10:13:51.604Z,326.25
2018-08-17T10:14:51.608Z,331.88
2018-08-17T10:15:51.681Z,343.13
2018-08-17T10:16:51.623Z,348.75
2018-08-17T10:17:51.631Z,354.38
2018-08-17T10:18:51.644Z,365.63
2018-08-17T10:19:51.643Z,376.88
2018-08-17T10:20:51.764Z,388.13
2018-08-17T10:21:51.949Z,399.38
2018-08-17T10:22:51.663Z,421.88
2018-08-17T10:23:51.670Z,427.50
2018-08-17T10:24:51.674Z,421.88
2018-08-17T10:25:51.682Z,421.88
2018-08-17T10:26:51.692Z,433.13
2018-08-17T10:27:51.699Z,433.13
2018-08-17T10:28:51.697Z,438.75
2018-08-17T10:29:51.710Z,421.88
2018-08-17T10:30:51.714Z,416.25
2018-08-17T10:31:51.723Z,427.50
2018-08-17T10:32:51.728Z,393.75
2018-08-17T10:33:51.761Z,376.88
2018-08-17T10:34:51.739Z,348.75
2018-08-17T10:35:51.746Z,354.38
2018-08-17T10:36:51.750Z,371.25
2018-08-17T10:37:51.758Z,343.13
2018-08-17T10:38:51.768Z,343.13
2018-08-17T10:39:51.779Z,320.63
2018-08-17T10:40:51.829Z,320.63
2018-08-17T10:41:51.792Z,309.38
2018-08-17T10:42:51.794Z,315.00
2018-08-17T10:43:51.802Z,309.38
2018-08-17T10:44:51.808Z,331.88
2018-08-17T10:45:51.813Z,326.25
2018-08-17T10:46:51.822Z,315.00
2018-08-17T10:47:51.829Z,315.00
2018-08-17T10:48:51.930Z,320.63
2018-08-17T10:49:51.846Z,337.50
2018-08-17T10:50:51.849Z,343.13
2018-08-17T10:51:51.857Z,354.38
2018-08-17T10:52:51.865Z,337.50
2018-08-17T10:53:51.879Z,337.50
2018-08-17T10:54:51.876Z,331.88
2018-08-17T10:55:51.888Z,326.25
2018-08-17T10:56:51.892Z,320.63
2018-08-17T10:57:51.896Z,315.00
2018-08-17T10:58:51.904Z,309.38
2018-08-17T10:59:51.913Z,298.13
2018-08-17T11:00:51.917Z,298.13
2018-08-17T11:01:51.926Z,292.50
2018-08-17T11:02:51.935Z,292.50
2018-08-17T11:03:51.943Z,292.50
2018-08-17T11:04:51.952Z,292.50
2018-08-17T11:05:51.960Z,292.50
2018-08-17T11:06:51.970Z,264.38
2018-08-17T11:07:51.968Z,264.38
2018-08-17T11:08:51.973Z,275.63
2018-08-17T11:09:51.982Z,298.13
2018-08-17T11:10:52.019Z,303.75
2018-08-17T11:11:51.994Z,292.50
2018-08-17T11:12:52.000Z,292.50
2018-08-17T11:13:52.007Z,303.75
2018-08-17T11:14:52.016Z,320.63
2018-08-17T11:15:52.038Z,360.00
2018-08-17T11:16:52.089Z,371.25
2018-08-17T11:17:52.037Z,382.50
2018-08-17T11:18:52.042Z,360.00
2018-08-17T11:19:52.052Z,348.75
2018-08-17T11:20:52.058Z,371.25
2018-08-17T11:21:52.064Z,320.63
2018-08-17T11:22:52.091Z,326.25
2018-08-17T11:23:52.079Z,309.38
2018-08-17T11:24:52.087Z,292.50
2018-08-17T11:25:52.092Z,281.25
2018-08-17T11:26:52.099Z,286.88
2018-08-17T11:27:52.106Z,286.88
2018-08-17T11:28:52.113Z,258.75
2018-08-17T11:29:52.124Z,264.38
2018-08-17T11:30:52.130Z,258.75
2018-08-17T11:31:52.135Z,258.75
2018-08-17T11:32:52.143Z,253.13
2018-08-17T11:33:52.149Z,253.13
2018-08-17T11:34:52.156Z,253.13
2018-08-17T11:35:52.165Z,258.75
2018-08-17T11:36:52.170Z,253.13
2018-08-17T11:37:52.180Z,247.50
2018-08-17T11:38:52.185Z,241.88
2018-08-17T11:39:52.191Z,236.25
2018-08-17T11:40:52.223Z,236.25
2018-08-17T11:41:52.205Z,236.25
2018-08-17T11:42:52.214Z,230.63
2018-08-17T11:43:52.219Z,230.63
2018-08-17T11:44:52.225Z,230.63
2018-08-17T11:45:52.234Z,230.63
2018-08-17T11:46:52.241Z,225.00
2018-08-17T11:47:52.257Z,225.00
2018-08-17T11:48:52.264Z,225.00
2018-08-17T11:49:52.263Z,225.00
2018-08-17T11:50:52.275Z,225.00
2018-08-17T11:51:52.277Z,230.63
2018-08-17T11:52:52.284Z,225.00
2018-08-17T11:53:52.359Z,230.63
2018-08-17T11:54:52.310Z,225.00
2018-08-17T11:55:52.310Z,196.88
2018-08-17T11:56:52.317Z,225.00
2018-08-17T11:57:52.331Z,225.00
2018-08-17T11:58:52.330Z,225.00
2018-08-17T11:59:52.340Z,230.63
2018-08-17T12:00:52.343Z,236.25
2018-08-17T12:01:52.411Z,241.88
2018-08-17T12:02:52.359Z,247.50
2018-08-17T12:03:52.404Z,236.25
2018-08-17T12:04:52.372Z,202.50
2018-08-17T12:05:52.382Z,219.38
2018-08-17T12:06:52.386Z,202.50
2018-08-17T12:07:52.415Z,185.63
2018-08-17T12:08:52.397Z,180.00
2018-08-17T12:09:52.426Z,191.25
2018-08-17T12:10:52.416Z,219.38
2018-08-17T12:11:52.423Z,225.00
2018-08-17T12:12:52.509Z,225.00
2018-08-17T12:13:52.436Z,225.00
2018-08-17T12:14:52.443Z,230.63
2018-08-17T12:15:52.450Z,230.63
2018-08-17T12:16:52.457Z,236.25
2018-08-17T12:17:52.463Z,241.88
2018-08-17T12:18:52.553Z,241.88
2018-08-17T12:19:52.479Z,241.88
2018-08-17T12:20:52.486Z,247.50
2018-08-17T12:21:52.494Z,247.50
2018-08-17T12:22:52.499Z,241.88
2018-08-17T12:23:52.512Z,241.88
2018-08-17T12:24:52.574Z,247.50
2018-08-17T12:25:52.523Z,241.88
2018-08-17T12:26:52.533Z,247.50
2018-08-17T12:27:52.540Z,247.50
2018-08-17T12:28:52.550Z,247.50
2018-08-17T12:29:52.552Z,247.50
2018-08-17T12:30:52.559Z,247.50
2018-08-17T12:31:52.579Z,241.88
2018-08-17T12:32:52.589Z,241.88
2018-08-17T12:33:52.590Z,241.88
2018-08-17T12:34:52.595Z,241.88
2018-08-17T12:35:52.608Z,236.25
2018-08-17T12:36:52.607Z,236.25
2018-08-17T12:37:52.623Z,236.25
2018-08-17T12:38:52.623Z,236.25
2018-08-17T12:39:52.627Z,236.25
2018-08-17T12:40:52.638Z,236.25